sensor_id;sensor_type;location;lat;lon;timestamp;temperature;humidity
62339;DHT22;48368;53.406;6.214;2024-02-14T00:01:22;6.40;99.90
62339;DHT22;48368;53.406;6.214;2024-02-14T00:03:47;6.50;99.90
62339;DHT22;48368;53.406;6.214;2024-02-14T00:06:13;6.50;99.90
62339;DHT22;48368;53.406;6.214;2024-02-14T00:08:39;6.40;99.90
62339;DHT22;48368;53.406;6.214;2024-02-14T00:11:04;6.50;99.90
62339;DHT22;48368;53.406;6.214;2024-02-14T00:13:30;6.40;99.90
62339;DHT22;48368;53.406;6.214;2024-02-14T00:16:00;6.50;99.90
62339;DHT22;48368;53.406;6.214;2024-02-14T00:18:26;6.50;99.90
62339;DHT22;48368;53.406;6.214;2024-02-14T00:20:52;6.50;99.90
62339;DHT22;48368;53.406;6.214;2024-02-14T00:23:18;6.40;99.90
62339;DHT22;48368;53.406;6.214;2024-02-14T00:25:44;6.50;99.90
62339;DHT22;48368;53.406;6.214;2024-02-14T00:28:12;6.50;99.90
62339;DHT22;48368;53.406;6.214;2024-02-14T00:30:38;6.50;99.90
62339;DHT22;48368;53.406;6.214;2024-02-14T00:33:03;6.50;99.90
62339;DHT22;48368;53.406;6.214;2024-02-14T00:35:29;6.50;99.90
62339;DHT22;48368;53.406;6.214;2024-02-14T00:37:55;6.50;99.90
62339;DHT22;48368;53.406;6.214;2024-02-14T00:40:21;6.50;99.90
62339;DHT22;48368;53.406;6.214;2024-02-14T00:42:48;6.50;99.90
62339;DHT22;48368;53.406;6.214;2024-02-14T00:45:13;6.50;99.90
62339;DHT22;48368;53.406;6.214;2024-02-14T00:47:39;6.50;99.90
62339;DHT22;48368;53.406;6.214;2024-02-14T00:50:05;6.50;99.90
62339;DHT22;48368;53.406;6.214;2024-02-14T00:52:31;6.50;99.90
62339;DHT22;48368;53.406;6.214;2024-02-14T00:54:57;6.50;99.90
62339;DHT22;48368;53.406;6.214;2024-02-14T00:57:23;6.60;99.90
62339;DHT22;48368;53.406;6.214;2024-02-14T00:59:54;6.50;99.90
62339;DHT22;48368;53.406;6.214;2024-02-14T01:02:22;6.60;99.90
62339;DHT22;48368;53.406;6.214;2024-02-14T01:04:47;6.60;99.90
62339;DHT22;48368;53.406;6.214;2024-02-14T01:07:13;6.60;99.90
62339;DHT22;48368;53.406;6.214;2024-02-14T01:09:39;6.60;99.90
62339;DHT22;48368;53.406;6.214;2024-02-14T01:12:05;6.60;99.90
62339;DHT22;48368;53.406;6.214;2024-02-14T01:14:35;6.60;99.90
62339;DHT22;48368;53.406;6.214;2024-02-14T01:17:00;6.60;99.90
62339;DHT22;48368;53.406;6.214;2024-02-14T01:19:26;6.60;99.90
62339;DHT22;48368;53.406;6.214;2024-02-14T01:21:54;6.60;99.90
62339;DHT22;48368;53.406;6.214;2024-02-14T01:24:20;6.60;99.90
62339;DHT22;48368;53.406;6.214;2024-02-14T01:26:50;6.60;99.90
62339;DHT22;48368;53.406;6.214;2024-02-14T01:29:16;6.60;99.90
62339;DHT22;48368;53.406;6.214;2024-02-14T01:31:42;6.60;99.90
62339;DHT22;48368;53.406;6.214;2024-02-14T01:34:08;6.70;99.90
62339;DHT22;48368;53.406;6.214;2024-02-14T01:36:33;6.70;99.90
62339;DHT22;48368;53.406;6.214;2024-02-14T01:38:59;6.70;99.90
62339;DHT22;48368;53.406;6.214;2024-02-14T01:41:25;6.70;99.90
62339;DHT22;48368;53.406;6.214;2024-02-14T01:43:50;6.70;99.90
62339;DHT22;48368;53.406;6.214;2024-02-14T01:46:19;6.70;99.90
62339;DHT22;48368;53.406;6.214;2024-02-14T01:48:45;6.70;99.90
62339;DHT22;48368;53.406;6.214;2024-02-14T01:51:11;6.80;99.90
62339;DHT22;48368;53.406;6.214;2024-02-14T01:53:38;6.70;99.90
62339;DHT22;48368;53.406;6.214;2024-02-14T01:56:05;6.80;99.90
62339;DHT22;48368;53.406;6.214;2024-02-14T01:58:33;6.80;99.90
62339;DHT22;48368;53.406;6.214;2024-02-14T02:00:59;6.80;99.90
62339;DHT22;48368;53.406;6.214;2024-02-14T02:03:26;6.80;99.90
62339;DHT22;48368;53.406;6.214;2024-02-14T02:05:53;6.80;99.90
62339;DHT22;48368;53.406;6.214;2024-02-14T02:08:23;6.80;99.90
62339;DHT22;48368;53.406;6.214;2024-02-14T02:10:51;6.90;99.90
62339;DHT22;48368;53.406;6.214;2024-02-14T02:13:17;6.90;99.90
62339;DHT22;48368;53.406;6.214;2024-02-14T02:15:43;6.90;99.90
62339;DHT22;48368;53.406;6.214;2024-02-14T02:18:12;6.90;99.90
62339;DHT22;48368;53.406;6.214;2024-02-14T02:20:38;6.90;99.90
62339;DHT22;48368;53.406;6.214;2024-02-14T02:23:04;7.00;99.90
62339;DHT22;48368;53.406;6.214;2024-02-14T02:25:30;7.00;99.90
62339;DHT22;48368;53.406;6.214;2024-02-14T02:27:56;7.00;99.90
62339;DHT22;48368;53.406;6.214;2024-02-14T02:30:23;7.00;99.90
62339;DHT22;48368;53.406;6.214;2024-02-14T02:32:50;7.00;99.90
62339;DHT22;48368;53.406;6.214;2024-02-14T02:35:18;7.10;99.90
62339;DHT22;48368;53.406;6.214;2024-02-14T02:37:47;7.10;99.90
62339;DHT22;48368;53.406;6.214;2024-02-14T02:40:19;7.10;99.90
62339;DHT22;48368;53.406;6.214;2024-02-14T02:42:47;7.20;99.90
62339;DHT22;48368;53.406;6.214;2024-02-14T02:45:12;7.20;99.90
62339;DHT22;48368;53.406;6.214;2024-02-14T02:47:38;7.20;99.90
62339;DHT22;48368;53.406;6.214;2024-02-14T02:50:05;7.30;99.90
62339;DHT22;48368;53.406;6.214;2024-02-14T02:52:31;7.30;99.90
62339;DHT22;48368;53.406;6.214;2024-02-14T02:54:57;7.30;99.90
62339;DHT22;48368;53.406;6.214;2024-02-14T02:57:23;7.30;99.90
62339;DHT22;48368;53.406;6.214;2024-02-14T02:59:52;7.40;99.90
62339;DHT22;48368;53.406;6.214;2024-02-14T03:02:18;7.40;99.90
62339;DHT22;48368;53.406;6.214;2024-02-14T03:04:44;7.40;99.90
62339;DHT22;48368;53.406;6.214;2024-02-14T03:07:10;7.40;99.90
62339;DHT22;48368;53.406;6.214;2024-02-14T03:09:36;7.40;99.90
62339;DHT22;48368;53.406;6.214;2024-02-14T03:12:06;7.50;99.90
62339;DHT22;48368;53.406;6.214;2024-02-14T03:14:32;7.50;99.90
62339;DHT22;48368;53.406;6.214;2024-02-14T03:17:07;7.50;99.90
62339;DHT22;48368;53.406;6.214;2024-02-14T03:19:35;7.60;99.90
62339;DHT22;48368;53.406;6.214;2024-02-14T03:22:05;7.60;99.90
62339;DHT22;48368;53.406;6.214;2024-02-14T03:24:34;7.70;99.90
62339;DHT22;48368;53.406;6.214;2024-02-14T03:27:05;7.60;99.90
62339;DHT22;48368;53.406;6.214;2024-02-14T03:29:30;7.70;99.90
62339;DHT22;48368;53.406;6.214;2024-02-14T03:31:56;7.70;99.90
62339;DHT22;48368;53.406;6.214;2024-02-14T03:34:24;7.80;99.90
62339;DHT22;48368;53.406;6.214;2024-02-14T03:36:50;7.80;99.90
62339;DHT22;48368;53.406;6.214;2024-02-14T03:39:19;7.80;99.90
62339;DHT22;48368;53.406;6.214;2024-02-14T03:41:44;7.90;99.90
62339;DHT22;48368;53.406;6.214;2024-02-14T03:44:10;7.90;99.90
62339;DHT22;48368;53.406;6.214;2024-02-14T03:46:36;7.90;99.90
62339;DHT22;48368;53.406;6.214;2024-02-14T03:49:01;7.90;99.90
62339;DHT22;48368;53.406;6.214;2024-02-14T03:51:27;7.90;99.90
62339;DHT22;48368;53.406;6.214;2024-02-14T03:53:53;7.90;99.90
62339;DHT22;48368;53.406;6.214;2024-02-14T03:56:18;7.90;99.90
62339;DHT22;48368;53.406;6.214;2024-02-14T03:58:48;8.00;99.90
62339;DHT22;48368;53.406;6.214;2024-02-14T04:01:15;7.90;99.90
62339;DHT22;48368;53.406;6.214;2024-02-14T04:03:49;8.00;99.90
62339;DHT22;48368;53.406;6.214;2024-02-14T04:06:15;7.90;99.90
62339;DHT22;48368;53.406;6.214;2024-02-14T04:08:42;8.00;99.90
62339;DHT22;48368;53.406;6.214;2024-02-14T04:11:07;8.00;99.90
62339;DHT22;48368;53.406;6.214;2024-02-14T04:13:33;8.00;99.90
62339;DHT22;48368;53.406;6.214;2024-02-14T04:15:58;8.00;99.90
62339;DHT22;48368;53.406;6.214;2024-02-14T04:18:24;8.00;99.90
62339;DHT22;48368;53.406;6.214;2024-02-14T04:20:50;8.00;99.90
62339;DHT22;48368;53.406;6.214;2024-02-14T04:23:15;8.10;99.90
62339;DHT22;48368;53.406;6.214;2024-02-14T04:25:41;8.00;99.90
62339;DHT22;48368;53.406;6.214;2024-02-14T04:28:07;8.10;99.90
62339;DHT22;48368;53.406;6.214;2024-02-14T04:30:32;8.10;99.90
62339;DHT22;48368;53.406;6.214;2024-02-14T04:32:58;8.10;99.90
62339;DHT22;48368;53.406;6.214;2024-02-14T04:35:26;8.10;99.90
62339;DHT22;48368;53.406;6.214;2024-02-14T04:37:52;8.20;99.90
62339;DHT22;48368;53.406;6.214;2024-02-14T04:40:18;8.20;99.90
62339;DHT22;48368;53.406;6.214;2024-02-14T04:42:43;8.20;99.90
62339;DHT22;48368;53.406;6.214;2024-02-14T04:45:09;8.30;99.90
62339;DHT22;48368;53.406;6.214;2024-02-14T04:47:35;8.30;99.90
62339;DHT22;48368;53.406;6.214;2024-02-14T04:50:01;8.40;99.90
62339;DHT22;48368;53.406;6.214;2024-02-14T04:52:29;8.40;99.90
62339;DHT22;48368;53.406;6.214;2024-02-14T04:54:55;8.40;99.90
62339;DHT22;48368;53.406;6.214;2024-02-14T04:57:22;8.40;99.90
62339;DHT22;48368;53.406;6.214;2024-02-14T04:59:48;8.40;99.90
62339;DHT22;48368;53.406;6.214;2024-02-14T05:02:13;8.40;99.90
62339;DHT22;48368;53.406;6.214;2024-02-14T05:04:42;8.40;99.90
62339;DHT22;48368;53.406;6.214;2024-02-14T05:21:51;8.50;99.90
62339;DHT22;48368;53.406;6.214;2024-02-14T05:24:17;8.50;99.90
62339;DHT22;48368;53.406;6.214;2024-02-14T05:26:42;8.50;99.90
62339;DHT22;48368;53.406;6.214;2024-02-14T05:29:08;8.60;99.90
62339;DHT22;48368;53.406;6.214;2024-02-14T05:31:47;8.50;99.90
62339;DHT22;48368;53.406;6.214;2024-02-14T05:34:14;8.60;99.90
62339;DHT22;48368;53.406;6.214;2024-02-14T05:36:40;8.60;99.90
62339;DHT22;48368;53.406;6.214;2024-02-14T05:39:07;8.50;99.90
62339;DHT22;48368;53.406;6.214;2024-02-14T05:41:33;8.60;99.90
62339;DHT22;48368;53.406;6.214;2024-02-14T05:44:00;8.60;99.90
62339;DHT22;48368;53.406;6.214;2024-02-14T05:46:25;8.60;99.90
62339;DHT22;48368;53.406;6.214;2024-02-14T05:48:54;8.60;99.90
62339;DHT22;48368;53.406;6.214;2024-02-14T05:51:23;8.60;99.90
62339;DHT22;48368;53.406;6.214;2024-02-14T05:53:48;8.70;99.90
62339;DHT22;48368;53.406;6.214;2024-02-14T05:56:47;8.70;99.90
62339;DHT22;48368;53.406;6.214;2024-02-14T06:03:17;8.70;99.90
62339;DHT22;48368;53.406;6.214;2024-02-14T06:05:42;8.70;99.90
62339;DHT22;48368;53.406;6.214;2024-02-14T06:11:50;8.70;99.90
62339;DHT22;48368;53.406;6.214;2024-02-14T06:14:16;8.70;99.90
62339;DHT22;48368;53.406;6.214;2024-02-14T06:16:41;8.70;99.90
62339;DHT22;48368;53.406;6.214;2024-02-14T06:19:07;8.70;99.90
62339;DHT22;48368;53.406;6.214;2024-02-14T06:21:33;8.70;99.90
62339;DHT22;48368;53.406;6.214;2024-02-14T06:24:00;8.70;99.90
62339;DHT22;48368;53.406;6.214;2024-02-14T06:26:30;8.70;99.90
62339;DHT22;48368;53.406;6.214;2024-02-14T06:32:21;8.70;99.90
62339;DHT22;48368;53.406;6.214;2024-02-14T06:42:09;8.70;99.90
62339;DHT22;48368;53.406;6.214;2024-02-14T06:44:35;8.70;99.90
62339;DHT22;48368;53.406;6.214;2024-02-14T06:47:00;8.70;99.90
62339;DHT22;48368;53.406;6.214;2024-02-14T06:49:26;8.70;99.90
62339;DHT22;48368;53.406;6.214;2024-02-14T06:51:51;8.70;99.90
62339;DHT22;48368;53.406;6.214;2024-02-14T06:54:19;8.70;99.90
62339;DHT22;48368;53.406;6.214;2024-02-14T06:56:45;8.70;99.90
62339;DHT22;48368;53.406;6.214;2024-02-14T06:59:11;8.70;99.90
62339;DHT22;48368;53.406;6.214;2024-02-14T07:01:36;8.80;99.90
62339;DHT22;48368;53.406;6.214;2024-02-14T07:04:03;8.80;99.90
62339;DHT22;48368;53.406;6.214;2024-02-14T07:06:30;8.80;99.90
62339;DHT22;48368;53.406;6.214;2024-02-14T07:08:56;8.90;99.90
62339;DHT22;48368;53.406;6.214;2024-02-14T07:11:21;8.90;99.90
62339;DHT22;48368;53.406;6.214;2024-02-14T07:13:47;8.90;99.90
62339;DHT22;48368;53.406;6.214;2024-02-14T07:16:13;8.90;99.90
62339;DHT22;48368;53.406;6.214;2024-02-14T07:18:38;8.90;99.90
62339;DHT22;48368;53.406;6.214;2024-02-14T07:21:04;8.90;99.90
62339;DHT22;48368;53.406;6.214;2024-02-14T07:23:31;9.00;99.90
62339;DHT22;48368;53.406;6.214;2024-02-14T07:25:58;8.90;99.90
62339;DHT22;48368;53.406;6.214;2024-02-14T07:28:23;8.90;99.90
62339;DHT22;48368;53.406;6.214;2024-02-14T07:30:49;9.00;99.90
62339;DHT22;48368;53.406;6.214;2024-02-14T07:33:15;9.00;99.90
62339;DHT22;48368;53.406;6.214;2024-02-14T07:35:41;9.00;99.90
62339;DHT22;48368;53.406;6.214;2024-02-14T07:38:08;9.00;99.90
62339;DHT22;48368;53.406;6.214;2024-02-14T07:40:34;9.00;99.90
62339;DHT22;48368;53.406;6.214;2024-02-14T07:43:00;9.00;99.90
62339;DHT22;48368;53.406;6.214;2024-02-14T07:45:26;9.10;99.90
62339;DHT22;48368;53.406;6.214;2024-02-14T07:47:52;9.10;99.90
62339;DHT22;48368;53.406;6.214;2024-02-14T07:50:18;9.10;99.90
62339;DHT22;48368;53.406;6.214;2024-02-14T07:52:45;9.10;99.90
62339;DHT22;48368;53.406;6.214;2024-02-14T07:55:11;9.10;99.90
62339;DHT22;48368;53.406;6.214;2024-02-14T07:57:41;9.10;99.90
62339;DHT22;48368;53.406;6.214;2024-02-14T08:00:11;9.10;99.90
62339;DHT22;48368;53.406;6.214;2024-02-14T08:02:37;9.10;99.90
62339;DHT22;48368;53.406;6.214;2024-02-14T08:05:03;9.20;99.90
62339;DHT22;48368;53.406;6.214;2024-02-14T08:07:30;9.10;99.90
62339;DHT22;48368;53.406;6.214;2024-02-14T08:09:56;9.20;99.90
62339;DHT22;48368;53.406;6.214;2024-02-14T08:12:22;9.20;99.90
62339;DHT22;48368;53.406;6.214;2024-02-14T08:14:48;9.20;99.90
62339;DHT22;48368;53.406;6.214;2024-02-14T08:17:14;9.20;99.90
62339;DHT22;48368;53.406;6.214;2024-02-14T08:19:39;9.30;99.90
62339;DHT22;48368;53.406;6.214;2024-02-14T08:22:05;9.30;99.90
62339;DHT22;48368;53.406;6.214;2024-02-14T08:24:32;9.30;99.90
62339;DHT22;48368;53.406;6.214;2024-02-14T08:26:58;9.30;99.90
62339;DHT22;48368;53.406;6.214;2024-02-14T08:29:24;9.30;99.90
62339;DHT22;48368;53.406;6.214;2024-02-14T08:31:49;9.30;99.90
62339;DHT22;48368;53.406;6.214;2024-02-14T08:34:16;9.30;99.90
62339;DHT22;48368;53.406;6.214;2024-02-14T08:36:42;9.30;99.90
62339;DHT22;48368;53.406;6.214;2024-02-14T08:39:08;9.40;99.90
62339;DHT22;48368;53.406;6.214;2024-02-14T08:41:38;9.40;99.90
62339;DHT22;48368;53.406;6.214;2024-02-14T08:44:04;9.40;99.90
62339;DHT22;48368;53.406;6.214;2024-02-14T08:46:31;9.40;99.90
62339;DHT22;48368;53.406;6.214;2024-02-14T08:48:57;9.40;99.90
62339;DHT22;48368;53.406;6.214;2024-02-14T08:51:25;9.40;99.90
62339;DHT22;48368;53.406;6.214;2024-02-14T08:53:51;9.40;99.90
62339;DHT22;48368;53.406;6.214;2024-02-14T08:56:20;9.50;99.90
62339;DHT22;48368;53.406;6.214;2024-02-14T08:58:48;9.50;99.90
62339;DHT22;48368;53.406;6.214;2024-02-14T09:01:14;9.50;99.90
62339;DHT22;48368;53.406;6.214;2024-02-14T09:03:44;9.50;99.90
62339;DHT22;48368;53.406;6.214;2024-02-14T09:06:15;9.50;99.90
62339;DHT22;48368;53.406;6.214;2024-02-14T09:08:41;9.60;99.90
62339;DHT22;48368;53.406;6.214;2024-02-14T09:11:11;9.60;99.90
62339;DHT22;48368;53.406;6.214;2024-02-14T09:13:40;9.60;99.90
62339;DHT22;48368;53.406;6.214;2024-02-14T09:16:10;9.70;99.90
62339;DHT22;48368;53.406;6.214;2024-02-14T09:18:37;9.70;99.90
62339;DHT22;48368;53.406;6.214;2024-02-14T09:21:03;9.70;99.90
62339;DHT22;48368;53.406;6.214;2024-02-14T09:23:34;9.70;99.90
62339;DHT22;48368;53.406;6.214;2024-02-14T09:26:00;9.70;99.90
62339;DHT22;48368;53.406;6.214;2024-02-14T09:28:26;9.70;99.90
62339;DHT22;48368;53.406;6.214;2024-02-14T09:30:52;9.70;99.90
62339;DHT22;48368;53.406;6.214;2024-02-14T09:33:17;9.70;99.90
62339;DHT22;48368;53.406;6.214;2024-02-14T09:35:43;9.70;99.90
62339;DHT22;48368;53.406;6.214;2024-02-14T09:38:13;9.70;99.90
62339;DHT22;48368;53.406;6.214;2024-02-14T09:40:42;9.80;99.90
62339;DHT22;48368;53.406;6.214;2024-02-14T09:43:28;9.80;99.90
62339;DHT22;48368;53.406;6.214;2024-02-14T09:45:58;9.80;99.90
62339;DHT22;48368;53.406;6.214;2024-02-14T09:48:23;9.70;99.90
62339;DHT22;48368;53.406;6.214;2024-02-14T09:50:52;9.80;99.90
62339;DHT22;48368;53.406;6.214;2024-02-14T09:53:19;9.80;99.90
62339;DHT22;48368;53.406;6.214;2024-02-14T09:55:49;9.80;99.90
62339;DHT22;48368;53.406;6.214;2024-02-14T09:58:16;9.80;99.90
62339;DHT22;48368;53.406;6.214;2024-02-14T10:00:42;9.90;99.90
62339;DHT22;48368;53.406;6.214;2024-02-14T10:03:11;9.90;99.90
62339;DHT22;48368;53.406;6.214;2024-02-14T10:05:39;10.00;99.90
62339;DHT22;48368;53.406;6.214;2024-02-14T10:08:05;10.00;99.90
62339;DHT22;48368;53.406;6.214;2024-02-14T10:10:34;10.00;99.90
62339;DHT22;48368;53.406;6.214;2024-02-14T10:13:06;10.10;99.90
62339;DHT22;48368;53.406;6.214;2024-02-14T10:15:32;10.00;99.90
62339;DHT22;48368;53.406;6.214;2024-02-14T10:17:59;10.10;99.90
62339;DHT22;48368;53.406;6.214;2024-02-14T10:20:25;10.10;99.90
62339;DHT22;48368;53.406;6.214;2024-02-14T10:22:53;10.10;99.90
62339;DHT22;48368;53.406;6.214;2024-02-14T10:25:25;10.10;99.90
62339;DHT22;48368;53.406;6.214;2024-02-14T10:27:51;10.10;99.90
62339;DHT22;48368;53.406;6.214;2024-02-14T10:30:17;10.10;99.90
62339;DHT22;48368;53.406;6.214;2024-02-14T10:32:42;10.10;99.90
62339;DHT22;48368;53.406;6.214;2024-02-14T10:35:13;10.10;99.90
62339;DHT22;48368;53.406;6.214;2024-02-14T10:37:39;10.10;99.90
62339;DHT22;48368;53.406;6.214;2024-02-14T10:40:05;10.10;99.90
62339;DHT22;48368;53.406;6.214;2024-02-14T10:42:32;10.10;99.90
62339;DHT22;48368;53.406;6.214;2024-02-14T10:44:59;10.10;99.90
62339;DHT22;48368;53.406;6.214;2024-02-14T10:47:29;10.10;99.90
62339;DHT22;48368;53.406;6.214;2024-02-14T10:50:01;10.20;99.90
62339;DHT22;48368;53.406;6.214;2024-02-14T10:52:32;10.20;99.90
62339;DHT22;48368;53.406;6.214;2024-02-14T10:55:03;10.20;99.90
62339;DHT22;48368;53.406;6.214;2024-02-14T10:57:30;10.20;99.90
62339;DHT22;48368;53.406;6.214;2024-02-14T10:59:58;10.20;99.90
62339;DHT22;48368;53.406;6.214;2024-02-14T11:02:25;10.30;99.90
62339;DHT22;48368;53.406;6.214;2024-02-14T11:04:56;10.30;99.90
62339;DHT22;48368;53.406;6.214;2024-02-14T11:07:21;10.30;99.90
62339;DHT22;48368;53.406;6.214;2024-02-14T11:09:59;10.30;99.90
62339;DHT22;48368;53.406;6.214;2024-02-14T11:12:36;10.30;99.90
62339;DHT22;48368;53.406;6.214;2024-02-14T11:15:19;10.30;99.90
62339;DHT22;48368;53.406;6.214;2024-02-14T11:17:45;10.30;99.90
62339;DHT22;48368;53.406;6.214;2024-02-14T11:20:30;10.20;99.90
62339;DHT22;48368;53.406;6.214;2024-02-14T11:22:57;10.20;99.90
62339;DHT22;48368;53.406;6.214;2024-02-14T11:25:28;10.20;99.90
62339;DHT22;48368;53.406;6.214;2024-02-14T11:28:12;10.20;99.90
62339;DHT22;48368;53.406;6.214;2024-02-14T11:30:40;10.20;99.90
62339;DHT22;48368;53.406;6.214;2024-02-14T11:35:41;10.30;99.90
62339;DHT22;48368;53.406;6.214;2024-02-14T11:38:08;10.30;99.90
62339;DHT22;48368;53.406;6.214;2024-02-14T11:40:35;10.30;99.90
62339;DHT22;48368;53.406;6.214;2024-02-14T11:43:00;10.30;99.90
62339;DHT22;48368;53.406;6.214;2024-02-14T11:45:27;10.30;99.90
62339;DHT22;48368;53.406;6.214;2024-02-14T11:47:53;10.30;99.90
62339;DHT22;48368;53.406;6.214;2024-02-14T11:50:20;10.30;99.90
62339;DHT22;48368;53.406;6.214;2024-02-14T11:52:46;10.30;99.90
62339;DHT22;48368;53.406;6.214;2024-02-14T11:55:12;10.30;99.90
62339;DHT22;48368;53.406;6.214;2024-02-14T11:57:41;10.30;99.90
62339;DHT22;48368;53.406;6.214;2024-02-14T12:00:09;10.30;99.90
62339;DHT22;48368;53.406;6.214;2024-02-14T12:02:38;10.40;99.90
62339;DHT22;48368;53.406;6.214;2024-02-14T12:05:04;10.40;99.90
62339;DHT22;48368;53.406;6.214;2024-02-14T12:07:30;10.30;99.90
62339;DHT22;48368;53.406;6.214;2024-02-14T12:09:56;10.40;99.90
62339;DHT22;48368;53.406;6.214;2024-02-14T12:12:22;10.40;99.90
62339;DHT22;48368;53.406;6.214;2024-02-14T12:14:54;10.50;99.90
62339;DHT22;48368;53.406;6.214;2024-02-14T12:17:23;10.50;99.90
62339;DHT22;48368;53.406;6.214;2024-02-14T12:19:49;10.50;99.90
62339;DHT22;48368;53.406;6.214;2024-02-14T12:22:16;10.50;99.90
62339;DHT22;48368;53.406;6.214;2024-02-14T12:24:46;10.60;99.90
62339;DHT22;48368;53.406;6.214;2024-02-14T12:27:16;10.60;99.90
62339;DHT22;48368;53.406;6.214;2024-02-14T12:29:45;10.60;99.90
62339;DHT22;48368;53.406;6.214;2024-02-14T12:32:11;10.60;99.90
62339;DHT22;48368;53.406;6.214;2024-02-14T12:34:37;10.60;99.90
62339;DHT22;48368;53.406;6.214;2024-02-14T12:37:03;10.70;99.90
62339;DHT22;48368;53.406;6.214;2024-02-14T12:39:29;10.60;99.90
62339;DHT22;48368;53.406;6.214;2024-02-14T12:41:55;10.60;99.90
62339;DHT22;48368;53.406;6.214;2024-02-14T12:44:21;10.60;99.90
62339;DHT22;48368;53.406;6.214;2024-02-14T12:46:46;10.60;99.90
62339;DHT22;48368;53.406;6.214;2024-02-14T12:49:12;10.60;99.90
62339;DHT22;48368;53.406;6.214;2024-02-14T12:51:39;10.60;99.90
62339;DHT22;48368;53.406;6.214;2024-02-14T12:54:05;10.60;99.90
62339;DHT22;48368;53.406;6.214;2024-02-14T12:56:32;10.60;99.90
62339;DHT22;48368;53.406;6.214;2024-02-14T12:58:58;10.70;99.90
62339;DHT22;48368;53.406;6.214;2024-02-14T13:01:25;10.60;99.90
62339;DHT22;48368;53.406;6.214;2024-02-14T13:03:51;10.60;99.90
62339;DHT22;48368;53.406;6.214;2024-02-14T13:06:16;10.60;99.90
62339;DHT22;48368;53.406;6.214;2024-02-14T13:08:42;10.70;99.90
62339;DHT22;48368;53.406;6.214;2024-02-14T13:11:07;10.70;99.90
62339;DHT22;48368;53.406;6.214;2024-02-14T13:13:36;10.70;99.90
62339;DHT22;48368;53.406;6.214;2024-02-14T13:16:02;10.60;99.90
62339;DHT22;48368;53.406;6.214;2024-02-14T13:18:28;10.70;99.90
62339;DHT22;48368;53.406;6.214;2024-02-14T13:20:53;10.70;99.90
62339;DHT22;48368;53.406;6.214;2024-02-14T13:23:25;10.70;99.90
62339;DHT22;48368;53.406;6.214;2024-02-14T13:25:51;10.70;99.90
62339;DHT22;48368;53.406;6.214;2024-02-14T13:28:17;10.70;99.90
62339;DHT22;48368;53.406;6.214;2024-02-14T13:30:43;10.70;99.90
62339;DHT22;48368;53.406;6.214;2024-02-14T13:33:09;10.70;99.90
62339;DHT22;48368;53.406;6.214;2024-02-14T13:35:37;10.70;99.90
62339;DHT22;48368;53.406;6.214;2024-02-14T13:38:04;10.70;99.90
62339;DHT22;48368;53.406;6.214;2024-02-14T13:40:31;10.70;99.90
62339;DHT22;48368;53.406;6.214;2024-02-14T13:42:57;10.60;99.90
62339;DHT22;48368;53.406;6.214;2024-02-14T13:45:24;10.60;99.90
62339;DHT22;48368;53.406;6.214;2024-02-14T13:47:51;10.60;99.90
62339;DHT22;48368;53.406;6.214;2024-02-14T13:50:20;10.60;99.90
62339;DHT22;48368;53.406;6.214;2024-02-14T13:52:46;10.60;99.90
62339;DHT22;48368;53.406;6.214;2024-02-14T13:55:12;10.60;99.90
62339;DHT22;48368;53.406;6.214;2024-02-14T13:57:38;10.60;99.90
62339;DHT22;48368;53.406;6.214;2024-02-14T14:00:08;10.60;99.90
62339;DHT22;48368;53.406;6.214;2024-02-14T14:02:35;10.60;99.90
62339;DHT22;48368;53.406;6.214;2024-02-14T14:05:06;10.50;99.90
62339;DHT22;48368;53.406;6.214;2024-02-14T14:07:34;10.50;99.90
62339;DHT22;48368;53.406;6.214;2024-02-14T14:10:03;10.60;99.90
62339;DHT22;48368;53.406;6.214;2024-02-14T14:12:28;10.60;99.90
62339;DHT22;48368;53.406;6.214;2024-02-14T14:14:54;10.60;99.90
62339;DHT22;48368;53.406;6.214;2024-02-14T14:17:20;10.60;99.90
62339;DHT22;48368;53.406;6.214;2024-02-14T14:19:45;10.60;99.90
62339;DHT22;48368;53.406;6.214;2024-02-14T14:22:11;10.70;99.90
62339;DHT22;48368;53.406;6.214;2024-02-14T14:24:36;10.60;99.90
62339;DHT22;48368;53.406;6.214;2024-02-14T14:27:05;10.60;99.90
62339;DHT22;48368;53.406;6.214;2024-02-14T14:29:34;10.60;99.90
62339;DHT22;48368;53.406;6.214;2024-02-14T14:32:00;10.60;99.90
62339;DHT22;48368;53.406;6.214;2024-02-14T14:34:26;10.60;99.90
62339;DHT22;48368;53.406;6.214;2024-02-14T14:36:53;10.50;99.90
62339;DHT22;48368;53.406;6.214;2024-02-14T14:39:20;10.60;99.90
62339;DHT22;48368;53.406;6.214;2024-02-14T14:41:48;10.60;99.90
62339;DHT22;48368;53.406;6.214;2024-02-14T14:44:14;10.50;99.90
62339;DHT22;48368;53.406;6.214;2024-02-14T14:46:40;10.60;99.90
62339;DHT22;48368;53.406;6.214;2024-02-14T14:49:08;10.60;99.90
62339;DHT22;48368;53.406;6.214;2024-02-14T14:51:35;10.60;99.90
62339;DHT22;48368;53.406;6.214;2024-02-14T14:54:01;10.60;99.90
62339;DHT22;48368;53.406;6.214;2024-02-14T14:56:27;10.60;99.90
62339;DHT22;48368;53.406;6.214;2024-02-14T14:58:55;10.60;99.90
62339;DHT22;48368;53.406;6.214;2024-02-14T15:06:45;10.50;99.90
62339;DHT22;48368;53.406;6.214;2024-02-14T15:09:13;10.50;99.90
62339;DHT22;48368;53.406;6.214;2024-02-14T15:11:39;10.50;99.90
62339;DHT22;48368;53.406;6.214;2024-02-14T15:14:05;10.50;99.90
62339;DHT22;48368;53.406;6.214;2024-02-14T15:16:32;10.50;99.90
62339;DHT22;48368;53.406;6.214;2024-02-14T15:18:57;10.60;99.90
62339;DHT22;48368;53.406;6.214;2024-02-14T15:21:23;10.60;99.90
62339;DHT22;48368;53.406;6.214;2024-02-14T15:23:48;10.60;99.90
62339;DHT22;48368;53.406;6.214;2024-02-14T15:26:14;10.60;99.90
62339;DHT22;48368;53.406;6.214;2024-02-14T15:28:42;10.60;99.90
62339;DHT22;48368;53.406;6.214;2024-02-14T15:31:10;10.60;99.90
62339;DHT22;48368;53.406;6.214;2024-02-14T15:33:55;10.60;99.90
62339;DHT22;48368;53.406;6.214;2024-02-14T15:36:21;10.60;99.90
62339;DHT22;48368;53.406;6.214;2024-02-14T15:38:47;10.60;99.90
62339;DHT22;48368;53.406;6.214;2024-02-14T15:41:13;10.60;99.90
62339;DHT22;48368;53.406;6.214;2024-02-14T15:43:40;10.60;99.90
62339;DHT22;48368;53.406;6.214;2024-02-14T15:46:10;10.60;99.90
62339;DHT22;48368;53.406;6.214;2024-02-14T15:48:36;10.50;99.90
62339;DHT22;48368;53.406;6.214;2024-02-14T15:51:02;10.50;99.90
62339;DHT22;48368;53.406;6.214;2024-02-14T15:53:27;10.40;99.90
62339;DHT22;48368;53.406;6.214;2024-02-14T15:55:55;10.50;99.90
62339;DHT22;48368;53.406;6.214;2024-02-14T15:58:21;10.40;99.90
62339;DHT22;48368;53.406;6.214;2024-02-14T16:00:47;10.40;99.90
62339;DHT22;48368;53.406;6.214;2024-02-14T16:03:13;10.40;99.90
62339;DHT22;48368;53.406;6.214;2024-02-14T16:05:41;10.40;99.90
62339;DHT22;48368;53.406;6.214;2024-02-14T16:08:14;10.40;99.90
62339;DHT22;48368;53.406;6.214;2024-02-14T16:10:41;10.40;99.90
62339;DHT22;48368;53.406;6.214;2024-02-14T16:13:07;10.40;99.90
62339;DHT22;48368;53.406;6.214;2024-02-14T16:15:34;10.40;99.90
62339;DHT22;48368;53.406;6.214;2024-02-14T16:17:59;10.40;99.90
62339;DHT22;48368;53.406;6.214;2024-02-14T16:20:25;10.40;99.90